Time;durP1;ratioP1;P1;durP2;ratioP2;P2;SDS_P1;SDS_P2;PMS_P1;PMS_P2;Temp;Humidity;BMP_temperature;BMP_pressure;BME280_temperature;BME280_humidity;BME280_pressure;Samples;Min_cycle;Max_cycle;Signal;HPM_P1;HPM_P2
2024/04/19 00:01:46;;;;;;;20.95;18.80;;;;;;;;;;5503863;26;19984;-54
2024/04/19 00:04:13;;;;;;;21.02;18.52;;;;;;;;;;5503506;26;20000;-54
2024/04/19 00:06:39;;;;;;;20.70;18.52;;;;;;;;;;5503435;26;19982;-59
2024/04/19 00:09:06;;;;;;;20.80;18.70;;;;;;;;;;5503561;26;19990;-43
2024/04/19 00:11:33;;;;;;;22.70;20.30;;;;;;;;;;5503823;26;20151;-46
2024/04/19 00:13:59;;;;;;;23.38;20.92;;;;;;;;;;5508058;26;20209;-44
2024/04/19 00:16:26;;;;;;;23.67;21.17;;;;;;;;;;5521985;25;20091;-44
2024/04/19 00:18:53;;;;;;;25.23;21.13;;;;;;;;;;5554572;25;19984;-43
2024/04/19 00:21:20;;;;;;;24.67;21.25;;;;;;;;;;5575436;25;20089;-44
2024/04/19 00:23:46;;;;;;;25.52;21.15;;;;;;;;;;5574709;25;20111;-45
2024/04/19 00:26:13;;;;;;;22.55;19.98;;;;;;;;;;5574550;25;20000;-52
2024/04/19 00:28:40;;;;;;;24.45;21.95;;;;;;;;;;5543590;25;19990;-43
2024/04/19 00:31:06;;;;;;;22.98;20.35;;;;;;;;;;5542916;25;19984;-44
2024/04/19 00:33:33;;;;;;;21.88;19.67;;;;;;;;;;5561078;25;19984;-49
2024/04/19 00:35:59;;;;;;;22.15;19.80;;;;;;;;;;5577174;25;19984;-47
2024/04/19 00:38:26;;;;;;;24.50;19.98;;;;;;;;;;5577318;25;19999;-47
2024/04/19 00:40:54;;;;;;;21.17;19.08;;;;;;;;;;5577448;25;19988;-40
2024/04/19 00:43:21;;;;;;;20.15;18.15;;;;;;;;;;5577069;25;20205;-43
2024/04/19 00:45:47;;;;;;;21.13;19.13;;;;;;;;;;5577208;25;19996;-44
2024/04/19 00:48:21;;;;;;;21.73;19.70;;;;;;;;;;5576992;25;20213;-45
2024/04/19 00:50:49;;;;;;;21.20;18.70;;;;;;;;;;5556041;25;19989;-43
2024/04/19 00:53:26;;;;;;;21.25;19.25;;;;;;;;;;5523219;26;19990;-44
2024/04/19 00:56:02;;;;;;;21.52;18.90;;;;;;;;;;5539681;26;19984;-44
2024/04/19 00:58:30;;;;;;;23.48;21.15;;;;;;;;;;5539664;26;20047;-44
2024/04/19 01:01:03;;;;;;;23.67;21.45;;;;;;;;;;5539789;26;19985;-39
2024/04/19 01:03:30;;;;;;;24.45;22.25;;;;;;;;;;5539243;26;19985;-42
2024/04/19 01:05:57;;;;;;;24.20;21.90;;;;;;;;;;5507997;26;20001;-43
2024/04/19 01:08:24;;;;;;;25.67;23.10;;;;;;;;;;5539443;26;20008;-47
2024/04/19 01:10:51;;;;;;;24.60;22.05;;;;;;;;;;5539337;26;19985;-47
2024/04/19 01:13:17;;;;;;;27.40;24.42;;;;;;;;;;5539604;26;19992;-43
2024/04/19 01:15:44;;;;;;;25.35;22.92;;;;;;;;;;5539334;26;19996;-42
2024/04/19 01:18:10;;;;;;;33.53;30.20;;;;;;;;;;5539141;26;19981;-49
2024/04/19 01:20:37;;;;;;;27.38;24.73;;;;;;;;;;5531569;26;19994;-47
2024/04/19 01:23:05;;;;;;;29.58;23.60;;;;;;;;;;5522833;26;19986;-42
2024/04/19 01:25:36;;;;;;;25.13;22.58;;;;;;;;;;5539029;26;20001;-47
2024/04/19 01:28:12;;;;;;;26.13;23.50;;;;;;;;;;5539129;26;19992;-42
2024/04/19 01:30:43;;;;;;;27.10;24.50;;;;;;;;;;5539231;26;20206;-48
2024/04/19 01:33:10;;;;;;;24.45;22.10;;;;;;;;;;5539080;26;19986;-43
2024/04/19 01:35:36;;;;;;;24.27;22.02;;;;;;;;;;5542810;26;19988;-44
2024/04/19 01:38:03;;;;;;;25.25;21.50;;;;;;;;;;5542749;26;20177;-44
2024/04/19 01:40:30;;;;;;;22.27;20.25;;;;;;;;;;5543170;26;19982;-40
2024/04/19 01:42:57;;;;;;;22.00;20.08;;;;;;;;;;5542488;26;19985;-39
2024/04/19 01:45:23;;;;;;;21.55;19.42;;;;;;;;;;5542683;26;19989;-54
2024/04/19 01:47:50;;;;;;;22.58;20.20;;;;;;;;;;5521934;25;19998;-44
2024/04/19 01:50:16;;;;;;;20.95;19.05;;;;;;;;;;5542866;26;19985;-41
2024/04/19 01:52:43;;;;;;;33.25;29.95;;;;;;;;;;5542802;26;19985;-46
2024/04/19 01:55:10;;;;;;;22.38;20.27;;;;;;;;;;5542697;26;19986;-42
2024/04/19 01:57:36;;;;;;;21.20;19.00;;;;;;;;;;5542734;26;19997;-40
2024/04/19 02:00:03;;;;;;;20.55;18.52;;;;;;;;;;5542857;26;19981;-42
2024/04/19 02:02:30;;;;;;;19.45;17.65;;;;;;;;;;5542670;26;19989;-41
2024/04/19 02:04:58;;;;;;;21.63;19.50;;;;;;;;;;5542494;26;20037;-47
2024/04/19 02:07:24;;;;;;;20.45;18.65;;;;;;;;;;5542008;26;19992;-44
2024/04/19 02:09:51;;;;;;;19.73;17.92;;;;;;;;;;5541844;26;19996;-42
2024/04/19 02:12:18;;;;;;;22.98;20.80;;;;;;;;;;5542070;26;19989;-47
2024/04/19 02:14:44;;;;;;;22.83;20.52;;;;;;;;;;5541921;26;20255;-48
2024/04/19 02:17:11;;;;;;;20.90;18.88;;;;;;;;;;5541715;26;20021;-49
2024/04/19 02:19:39;;;;;;;20.45;18.65;;;;;;;;;;5541797;26;19991;-42
2024/04/19 02:22:06;;;;;;;18.98;17.25;;;;;;;;;;5541998;26;19989;-42
2024/04/19 02:24:34;;;;;;;18.23;16.42;;;;;;;;;;5534181;26;19996;-44
2024/04/19 02:27:05;;;;;;;18.25;16.55;;;;;;;;;;5528535;26;19989;-40
2024/04/19 02:32:17;;;;;;;18.77;16.88;;;;;;;;;;5542549;26;19989;-40
2024/04/19 02:34:44;;;;;;;18.42;16.58;;;;;;;;;;5541662;26;19989;-49
2024/04/19 02:37:10;;;;;;;18.15;16.48;;;;;;;;;;5541388;26;19985;-41
2024/04/19 02:39:37;;;;;;;17.52;15.98;;;;;;;;;;5541628;26;19990;-40
2024/04/19 02:42:04;;;;;;;17.33;15.73;;;;;;;;;;5541655;26;19985;-47
2024/04/19 02:44:30;;;;;;;16.92;15.43;;;;;;;;;;5541266;26;19989;-40
2024/04/19 02:46:57;;;;;;;16.38;14.88;;;;;;;;;;5541629;26;19996;-41
2024/04/19 02:49:23;;;;;;;18.35;16.45;;;;;;;;;;5541574;26;19993;-42
2024/04/19 02:51:50;;;;;;;23.38;21.17;;;;;;;;;;5541312;26;20038;-45
2024/04/19 02:54:16;;;;;;;20.80;18.80;;;;;;;;;;5541466;26;19990;-40
2024/04/19 02:56:43;;;;;;;22.95;20.15;;;;;;;;;;5541568;26;20075;-42
2024/04/19 02:59:09;;;;;;;22.30;20.20;;;;;;;;;;5541129;26;20038;-44
2024/04/19 03:01:36;;;;;;;20.52;18.63;;;;;;;;;;5522282;25;20001;-43
2024/04/19 03:04:03;;;;;;;19.42;17.63;;;;;;;;;;5539559;26;20001;-43
2024/04/19 03:06:29;;;;;;;18.95;17.15;;;;;;;;;;5541195;26;20275;-41
2024/04/19 03:08:56;;;;;;;19.58;17.67;;;;;;;;;;5541171;26;19993;-40
2024/04/19 03:11:23;;;;;;;18.27;16.58;;;;;;;;;;5541385;26;19993;-45
2024/04/19 03:13:49;;;;;;;17.95;16.25;;;;;;;;;;5541112;26;19996;-42
2024/04/19 03:16:16;;;;;;;17.88;16.27;;;;;;;;;;5540834;25;20177;-47
2024/04/19 03:18:42;;;;;;;18.13;16.33;;;;;;;;;;5556356;25;20170;-40
2024/04/19 03:21:09;;;;;;;18.05;16.35;;;;;;;;;;5578534;25;19991;-41
2024/04/19 03:23:36;;;;;;;20.38;18.40;;;;;;;;;;5578295;25;19995;-47
2024/04/19 03:26:03;;;;;;;18.20;16.52;;;;;;;;;;5578570;25;19981;-42
2024/04/19 03:28:30;;;;;;;17.20;15.48;;;;;;;;;;5578475;25;20000;-46
2024/04/19 03:30:56;;;;;;;16.10;14.70;;;;;;;;;;5578238;25;19981;-46
2024/04/19 03:33:23;;;;;;;17.23;15.77;;;;;;;;;;5578486;25;20000;-43
2024/04/19 03:35:49;;;;;;;17.95;16.17;;;;;;;;;;5578691;25;20033;-43
2024/04/19 03:38:16;;;;;;;17.13;15.52;;;;;;;;;;5546153;25;20130;-39
2024/04/19 03:40:52;;;;;;;15.90;14.40;;;;;;;;;;5535171;25;19993;-42
2024/04/19 03:43:19;;;;;;;15.65;14.25;;;;;;;;;;5544397;25;20000;-42
2024/04/19 03:45:45;;;;;;;15.27;13.75;;;;;;;;;;5573685;25;19985;-43
2024/04/19 03:48:13;;;;;;;17.20;15.60;;;;;;;;;;5578519;25;20129;-41
2024/04/19 03:50:40;;;;;;;16.33;14.68;;;;;;;;;;5578326;25;19988;-41
2024/04/19 03:53:06;;;;;;;15.80;14.20;;;;;;;;;;5578196;25;19985;-46
2024/04/19 03:55:33;;;;;;;15.85;14.23;;;;;;;;;;5578595;25;19984;-43
2024/04/19 03:58:00;;;;;;;15.95;14.43;;;;;;;;;;5549856;25;20123;-44
2024/04/19 04:00:26;;;;;;;15.80;14.30;;;;;;;;;;5533883;25;19980;-41
2024/04/19 04:02:53;;;;;;;15.45;13.85;;;;;;;;;;5565889;25;19996;-43
2024/04/19 04:05:20;;;;;;;15.70;14.30;;;;;;;;;;5543421;25;19985;-41
2024/04/19 04:07:46;;;;;;;16.50;14.43;;;;;;;;;;5540852;26;20005;-47
2024/04/19 04:10:13;;;;;;;15.40;14.00;;;;;;;;;;5540703;26;19981;-45
2024/04/19 04:12:40;;;;;;;15.40;14.02;;;;;;;;;;5541715;26;19986;-42
2024/04/19 04:15:07;;;;;;;15.82;14.05;;;;;;;;;;5529036;26;19989;-44
2024/04/19 04:17:34;;;;;;;14.68;13.40;;;;;;;;;;5511563;26;19994;-44
2024/04/19 04:20:03;;;;;;;15.45;13.95;;;;;;;;;;5503201;26;20110;-43
2024/04/19 04:22:29;;;;;;;16.58;14.60;;;;;;;;;;5502832;26;19986;-40
2024/04/19 04:24:56;;;;;;;15.55;14.05;;;;;;;;;;5503322;26;19986;-44
2024/04/19 04:27:22;;;;;;;15.13;13.80;;;;;;;;;;5503179;26;19994;-44
2024/04/19 04:29:49;;;;;;;15.27;13.88;;;;;;;;;;5503029;26;20042;-41
2024/04/19 04:32:16;;;;;;;15.40;13.82;;;;;;;;;;5502875;26;20001;-47
2024/04/19 04:34:44;;;;;;;15.70;14.20;;;;;;;;;;5502862;26;19993;-44
2024/04/19 04:37:10;;;;;;;14.95;13.55;;;;;;;;;;5502664;26;19997;-41
2024/04/19 04:39:37;;;;;;;14.50;13.10;;;;;;;;;;5502765;26;19989;-49
2024/04/19 04:42:04;;;;;;;14.68;13.27;;;;;;;;;;5502857;26;19990;-42
2024/04/19 04:44:32;;;;;;;14.55;13.13;;;;;;;;;;5502602;26;19982;-43
2024/04/19 04:46:59;;;;;;;16.45;13.85;;;;;;;;;;5502902;26;20002;-47
2024/04/19 04:49:26;;;;;;;17.73;14.57;;;;;;;;;;5502717;26;20040;-40
2024/04/19 04:51:53;;;;;;;15.60;14.10;;;;;;;;;;5502418;26;20010;-42
2024/04/19 04:54:19;;;;;;;14.63;13.30;;;;;;;;;;5502624;26;20018;-40
2024/04/19 04:56:46;;;;;;;14.75;13.45;;;;;;;;;;5502604;26;20010;-42
2024/04/19 04:59:12;;;;;;;14.60;13.30;;;;;;;;;;5502332;26;19986;-43
2024/04/19 05:01:39;;;;;;;14.80;13.07;;;;;;;;;;5502421;26;19990;-43
2024/04/19 05:04:06;;;;;;;14.07;12.43;;;;;;;;;;5503160;26;19993;-46
2024/04/19 05:06:32;;;;;;;14.02;12.82;;;;;;;;;;5502405;26;19990;-43
2024/04/19 05:08:59;;;;;;;14.65;12.52;;;;;;;;;;5503253;26;19986;-44
2024/04/19 05:11:26;;;;;;;13.88;12.43;;;;;;;;;;5506092;26;19993;-46
2024/04/19 05:13:52;;;;;;;15.32;12.77;;;;;;;;;;5505717;26;20143;-41
2024/04/19 05:16:19;;;;;;;14.52;12.65;;;;;;;;;;5506030;26;20086;-40
2024/04/19 05:18:45;;;;;;;13.80;12.02;;;;;;;;;;5506380;26;20013;-40
2024/04/19 05:21:12;;;;;;;13.05;11.82;;;;;;;;;;5505799;26;19997;-43
2024/04/19 05:23:38;;;;;;;14.80;13.40;;;;;;;;;;5505994;26;20094;-44
2024/04/19 05:26:05;;;;;;;13.68;12.32;;;;;;;;;;5505720;26;20231;-40
2024/04/19 05:28:34;;;;;;;13.50;12.00;;;;;;;;;;5505932;26;20251;-41
2024/04/19 05:31:01;;;;;;;14.30;12.93;;;;;;;;;;5505683;26;19997;-46
2024/04/19 05:33:28;;;;;;;14.55;13.18;;;;;;;;;;5506019;26;19997;-41
2024/04/19 05:35:55;;;;;;;14.25;12.70;;;;;;;;;;5505641;26;20256;-48
2024/04/19 05:38:22;;;;;;;13.55;12.25;;;;;;;;;;5505716;26;19994;-41
2024/04/19 05:40:48;;;;;;;15.43;12.73;;;;;;;;;;5505731;26;20087;-41
2024/04/19 05:43:15;;;;;;;13.85;12.55;;;;;;;;;;5505497;26;19987;-43
2024/04/19 05:45:41;;;;;;;13.68;12.20;;;;;;;;;;5505339;26;19993;-46
2024/04/19 05:48:08;;;;;;;14.07;11.77;;;;;;;;;;5505464;26;19994;-45
2024/04/19 05:50:35;;;;;;;14.38;11.02;;;;;;;;;;5505707;26;19990;-43
2024/04/19 05:53:01;;;;;;;12.27;11.00;;;;;;;;;;5505182;26;19986;-47
2024/04/19 05:55:28;;;;;;;13.75;11.27;;;;;;;;;;5505548;26;19989;-51
2024/04/19 05:57:54;;;;;;;11.95;10.75;;;;;;;;;;5505431;26;19993;-42
2024/04/19 06:00:21;;;;;;;12.38;11.00;;;;;;;;;;5505266;26;19986;-47
2024/04/19 06:02:48;;;;;;;13.88;11.80;;;;;;;;;;5505291;26;19990;-41
2024/04/19 06:05:15;;;;;;;12.65;11.20;;;;;;;;;;5505422;26;19986;-43
2024/04/19 06:07:41;;;;;;;14.30;12.10;;;;;;;;;;5504964;26;19990;-41
2024/04/19 06:10:08;;;;;;;12.48;11.27;;;;;;;;;;5505365;26;19994;-47
2024/04/19 06:12:35;;;;;;;12.30;11.02;;;;;;;;;;5522575;26;20006;-43
2024/04/19 06:15:01;;;;;;;11.68;10.57;;;;;;;;;;5542114;26;19988;-41
2024/04/19 06:17:28;;;;;;;12.02;10.80;;;;;;;;;;5542001;26;19986;-42
2024/04/19 06:19:54;;;;;;;10.98;9.90;;;;;;;;;;5541635;26;19977;-42
2024/04/19 06:22:21;;;;;;;10.73;9.70;;;;;;;;;;5541818;26;19982;-43
2024/04/19 06:24:48;;;;;;;10.45;9.45;;;;;;;;;;5541944;26;19985;-45
2024/04/19 06:27:14;;;;;;;12.00;8.65;;;;;;;;;;5541793;26;20045;-41
2024/04/19 06:29:41;;;;;;;10.50;8.38;;;;;;;;;;5541539;26;19989;-42
2024/04/19 06:32:09;;;;;;;8.35;7.55;;;;;;;;;;5541749;26;20011;-41
2024/04/19 06:34:36;;;;;;;9.20;7.68;;;;;;;;;;5541692;26;20079;-42
2024/04/19 06:37:03;;;;;;;11.55;8.00;;;;;;;;;;5541525;26;19986;-46
2024/04/19 06:39:31;;;;;;;9.50;7.45;;;;;;;;;;5541615;26;19993;-45
2024/04/19 06:41:58;;;;;;;12.73;7.50;;;;;;;;;;5541701;26;20214;-43
2024/04/19 06:44:25;;;;;;;9.77;6.88;;;;;;;;;;5541326;26;20209;-44
2024/04/19 06:46:51;;;;;;;10.27;6.88;;;;;;;;;;5541610;26;19989;-43
2024/04/19 06:49:19;;;;;;;11.80;6.80;;;;;;;;;;5541459;26;19985;-42
2024/04/19 06:51:45;;;;;;;9.13;6.68;;;;;;;;;;5541302;26;19986;-43
2024/04/19 06:54:12;;;;;;;7.70;6.32;;;;;;;;;;5541441;26;20190;-45
2024/04/19 06:56:38;;;;;;;9.63;6.95;;;;;;;;;;5541486;26;20089;-41
2024/04/19 06:59:06;;;;;;;9.90;6.32;;;;;;;;;;5541319;26;20051;-49
2024/04/19 07:01:33;;;;;;;7.07;6.18;;;;;;;;;;5541361;26;20111;-46
2024/04/19 07:04:00;;;;;;;10.07;6.45;;;;;;;;;;5541552;26;19989;-42
2024/04/19 07:06:26;;;;;;;11.52;7.20;;;;;;;;;;5541314;26;20000;-40
2024/04/19 07:08:53;;;;;;;8.93;7.00;;;;;;;;;;5541240;26;20255;-46
2024/04/19 07:11:19;;;;;;;11.68;7.03;;;;;;;;;;5541229;26;20166;-43
2024/04/19 07:13:47;;;;;;;8.23;6.60;;;;;;;;;;5541148;26;20089;-41
2024/04/19 07:16:14;;;;;;;8.27;6.82;;;;;;;;;;5541221;26;19985;-44
2024/04/19 07:18:41;;;;;;;9.65;6.60;;;;;;;;;;5541102;26;19994;-40
2024/04/19 07:21:07;;;;;;;7.95;6.75;;;;;;;;;;5541102;26;20250;-47
2024/04/19 07:23:34;;;;;;;10.30;7.28;;;;;;;;;;5541164;26;20234;-41
2024/04/19 07:26:00;;;;;;;10.88;7.30;;;;;;;;;;5540969;26;20201;-43
2024/04/19 07:28:27;;;;;;;8.75;7.47;;;;;;;;;;5540746;26;20041;-48
2024/04/19 07:30:54;;;;;;;8.90;7.53;;;;;;;;;;5540730;26;19997;-42
2024/04/19 07:33:20;;;;;;;10.27;7.25;;;;;;;;;;5540224;26;19990;-42
2024/04/19 07:35:47;;;;;;;9.52;7.82;;;;;;;;;;5540970;26;20030;-45
2024/04/19 07:38:14;;;;;;;12.13;7.70;;;;;;;;;;5540460;26;19996;-45
2024/04/19 07:40:41;;;;;;;27.05;9.05;;;;;;;;;;5540795;26;20210;-42
2024/04/19 07:43:08;;;;;;;11.45;8.38;;;;;;;;;;5540662;26;20088;-43
2024/04/19 07:45:35;;;;;;;10.48;8.82;;;;;;;;;;5540543;26;19985;-43
2024/04/19 07:48:01;;;;;;;9.88;8.88;;;;;;;;;;5540576;26;19996;-41
2024/04/19 07:50:28;;;;;;;9.65;8.68;;;;;;;;;;5540814;26;19981;-42
2024/04/19 07:52:54;;;;;;;9.45;8.55;;;;;;;;;;5540320;26;19989;-41
2024/04/19 07:55:21;;;;;;;11.38;9.25;;;;;;;;;;5540572;26;19985;-42
2024/04/19 07:57:48;;;;;;;10.70;9.13;;;;;;;;;;5540722;26;20082;-43
2024/04/19 08:00:18;;;;;;;13.10;9.38;;;;;;;;;;5540480;26;19992;-51
2024/04/19 08:02:44;;;;;;;12.93;9.55;;;;;;;;;;5540688;26;20001;-42
2024/04/19 08:05:12;;;;;;;10.30;9.30;;;;;;;;;;5540393;26;20202;-46
2024/04/19 08:07:38;;;;;;;12.45;9.23;;;;;;;;;;5508565;26;19992;-48
2024/04/19 08:10:05;;;;;;;10.98;9.80;;;;;;;;;;5540363;26;20046;-46
2024/04/19 08:12:32;;;;;;;10.82;9.73;;;;;;;;;;5540188;26;20027;-45
2024/04/19 08:14:59;;;;;;;11.68;9.95;;;;;;;;;;5540071;26;20002;-41
2024/04/19 08:17:26;;;;;;;10.45;9.38;;;;;;;;;;5540191;26;19991;-41
2024/04/19 08:19:52;;;;;;;11.20;10.02;;;;;;;;;;5540167;26;20012;-49
2024/04/19 08:22:19;;;;;;;10.35;9.35;;;;;;;;;;5540235;26;19988;-44
2024/04/19 08:24:45;;;;;;;12.18;9.60;;;;;;;;;;5540147;26;19985;-41
2024/04/19 08:27:12;;;;;;;12.90;9.90;;;;;;;;;;5540053;26;20038;-42
2024/04/19 08:29:39;;;;;;;10.95;9.57;;;;;;;;;;5539695;26;19985;-41
2024/04/19 08:32:09;;;;;;;9.93;8.90;;;;;;;;;;5539931;26;19984;-45
2024/04/19 08:34:35;;;;;;;12.65;9.43;;;;;;;;;;5539809;26;20227;-40
2024/04/19 08:37:02;;;;;;;11.80;9.63;;;;;;;;;;5539515;26;19990;-49
2024/04/19 08:39:29;;;;;;;10.07;9.18;;;;;;;;;;5539788;26;19985;-41
2024/04/19 08:41:59;;;;;;;12.35;9.63;;;;;;;;;;5540034;26;19994;-45
2024/04/19 08:44:25;;;;;;;10.20;9.20;;;;;;;;;;5542628;26;20194;-42
2024/04/19 08:46:53;;;;;;;11.85;9.57;;;;;;;;;;5543220;26;20000;-45
2024/04/19 08:49:20;;;;;;;10.27;9.27;;;;;;;;;;5543353;26;19986;-40
2024/04/19 08:51:46;;;;;;;10.30;9.18;;;;;;;;;;5522539;26;20009;-40
2024/04/19 08:54:13;;;;;;;11.52;9.30;;;;;;;;;;5532778;26;19986;-40
2024/04/19 08:56:40;;;;;;;12.30;9.88;;;;;;;;;;5506268;26;20001;-40
2024/04/19 08:59:07;;;;;;;12.07;9.27;;;;;;;;;;5505932;26;19989;-41
2024/04/19 09:01:34;;;;;;;14.23;8.68;;;;;;;;;;5506127;26;19997;-41
2024/04/19 09:04:00;;;;;;;10.60;8.38;;;;;;;;;;5506060;26;19982;-42
2024/04/19 09:06:28;;;;;;;10.75;9.25;;;;;;;;;;5506038;26;20093;-41
2024/04/19 09:08:55;;;;;;;12.88;8.55;;;;;;;;;;5506051;26;19994;-41
2024/04/19 09:11:22;;;;;;;10.18;8.75;;;;;;;;;;5506126;26;20038;-44
2024/04/19 09:13:48;;;;;;;11.68;8.65;;;;;;;;;;5506029;26;19998;-40
2024/04/19 09:16:15;;;;;;;11.02;8.40;;;;;;;;;;5505927;26;19990;-41
2024/04/19 09:18:42;;;;;;;10.00;8.45;;;;;;;;;;5505856;26;19993;-42
2024/04/19 09:21:09;;;;;;;9.95;8.75;;;;;;;;;;5505996;26;20014;-46
2024/04/19 09:23:35;;;;;;;12.68;8.40;;;;;;;;;;5506034;26;20243;-41
2024/04/19 09:26:02;;;;;;;13.50;9.15;;;;;;;;;;5506092;26;19989;-41
2024/04/19 09:28:32;;;;;;;12.05;9.50;;;;;;;;;;5505630;26;19993;-41
2024/04/19 09:30:58;;;;;;;10.77;9.43;;;;;;;;;;5506042;26;20107;-43
2024/04/19 09:33:25;;;;;;;9.50;8.50;;;;;;;;;;5505589;26;20045;-41
2024/04/19 09:35:52;;;;;;;11.00;8.90;;;;;;;;;;5505829;26;19996;-43
2024/04/19 09:38:22;;;;;;;12.93;9.07;;;;;;;;;;5505652;26;20042;-46
2024/04/19 09:40:48;;;;;;;9.93;8.82;;;;;;;;;;5505581;26;20010;-42
2024/04/19 09:43:16;;;;;;;13.05;9.07;;;;;;;;;;5505502;26;19992;-47
2024/04/19 09:45:43;;;;;;;12.88;10.25;;;;;;;;;;5505523;26;20001;-41
2024/04/19 09:48:16;;;;;;;12.60;9.85;;;;;;;;;;5505461;26;19986;-41
2024/04/19 09:50:51;;;;;;;11.60;10.40;;;;;;;;;;5505287;26;19986;-45
2024/04/19 09:53:21;;;;;;;12.38;9.85;;;;;;;;;;5505420;26;20233;-42
2024/04/19 09:55:57;;;;;;;10.50;9.35;;;;;;;;;;5504715;26;20079;-43
2024/04/19 09:58:24;;;;;;;11.27;9.93;;;;;;;;;;5505381;26;20069;-43
2024/04/19 10:00:51;;;;;;;12.32;10.35;;;;;;;;;;5505313;26;19986;-40
2024/04/19 10:03:21;;;;;;;12.45;9.77;;;;;;;;;;5505152;26;19997;-43
2024/04/19 10:05:48;;;;;;;11.07;9.63;;;;;;;;;;5505187;26;19997;-40
2024/04/19 10:08:16;;;;;;;11.68;10.27;;;;;;;;;;5505338;26;20006;-43
2024/04/19 10:10:43;;;;;;;10.52;9.15;;;;;;;;;;5505078;26;20001;-42
2024/04/19 10:13:09;;;;;;;11.95;8.68;;;;;;;;;;5505110;26;20026;-41
2024/04/19 10:15:36;;;;;;;12.35;9.35;;;;;;;;;;5505376;26;19985;-48
2024/04/19 10:18:03;;;;;;;10.10;9.05;;;;;;;;;;5504965;26;19993;-48
2024/04/19 10:20:30;;;;;;;11.38;8.38;;;;;;;;;;5505131;26;20036;-48
2024/04/19 10:22:58;;;;;;;9.75;8.00;;;;;;;;;;5504906;26;19986;-43
2024/04/19 10:25:25;;;;;;;11.65;7.72;;;;;;;;;;5504769;26;20220;-41
2024/04/19 10:27:52;;;;;;;10.98;7.18;;;;;;;;;;5504952;26;20046;-42
2024/04/19 10:30:18;;;;;;;8.85;6.97;;;;;;;;;;5505150;26;19986;-45
2024/04/19 10:32:52;;;;;;;11.25;7.18;;;;;;;;;;5504607;26;20108;-46
2024/04/19 10:35:20;;;;;;;10.65;7.20;;;;;;;;;;5505145;26;19993;-42
2024/04/19 10:37:47;;;;;;;9.70;7.22;;;;;;;;;;5504646;26;19989;-46
2024/04/19 10:40:15;;;;;;;11.38;7.05;;;;;;;;;;5504696;26;20006;-43
2024/04/19 10:42:42;;;;;;;11.32;6.88;;;;;;;;;;5504743;26;19990;-45
2024/04/19 10:45:15;;;;;;;10.00;6.93;;;;;;;;;;5504664;26;19986;-40
2024/04/19 10:47:42;;;;;;;11.73;6.80;;;;;;;;;;5504270;26;19986;-43
2024/04/19 10:50:09;;;;;;;12.90;6.85;;;;;;;;;;5504615;26;20093;-44
2024/04/19 10:52:38;;;;;;;11.88;7.47;;;;;;;;;;5504435;26;19986;-47
2024/04/19 10:55:05;;;;;;;13.38;6.90;;;;;;;;;;5504440;26;19986;-40
2024/04/19 10:57:32;;;;;;;13.60;7.10;;;;;;;;;;5504653;26;19997;-42
2024/04/19 10:59:59;;;;;;;11.32;7.45;;;;;;;;;;5504544;26;19986;-47
2024/04/19 11:02:29;;;;;;;16.88;7.18;;;;;;;;;;5504173;26;20215;-43
2024/04/19 11:04:56;;;;;;;10.68;7.80;;;;;;;;;;5504469;26;20155;-46
2024/04/19 11:07:22;;;;;;;18.50;7.38;;;;;;;;;;5502862;26;19998;-42
2024/04/19 11:09:50;;;;;;;17.35;7.95;;;;;;;;;;5504352;26;20140;-42
2024/04/19 11:12:16;;;;;;;12.48;7.43;;;;;;;;;;5504674;26;19990;-43
2024/04/19 11:14:43;;;;;;;11.80;7.50;;;;;;;;;;5504198;26;19978;-40
2024/04/19 11:17:10;;;;;;;13.60;7.93;;;;;;;;;;5504228;26;19990;-43
2024/04/19 11:19:36;;;;;;;15.10;8.48;;;;;;;;;;5504219;26;19989;-40
2024/04/19 11:22:03;;;;;;;15.45;8.65;;;;;;;;;;5504185;26;20042;-43
2024/04/19 11:24:33;;;;;;;14.63;8.77;;;;;;;;;;5504066;26;20006;-46
2024/04/19 11:27:00;;;;;;;14.68;8.10;;;;;;;;;;5504092;26;20001;-47
2024/04/19 11:29:27;;;;;;;16.90;8.73;;;;;;;;;;5504329;26;19994;-41
2024/04/19 11:31:54;;;;;;;13.05;8.27;;;;;;;;;;5503921;26;20010;-40
2024/04/19 11:34:20;;;;;;;14.95;9.05;;;;;;;;;;5503927;26;19982;-44
2024/04/19 11:36:47;;;;;;;15.98;9.05;;;;;;;;;;5504136;26;20244;-44
2024/04/19 11:39:14;;;;;;;16.13;9.15;;;;;;;;;;5503684;26;20198;-43
2024/04/19 11:41:40;;;;;;;12.50;9.00;;;;;;;;;;5504134;26;20075;-43
2024/04/19 11:44:08;;;;;;;17.42;9.65;;;;;;;;;;5504072;26;20039;-41
2024/04/19 11:46:35;;;;;;;13.98;9.38;;;;;;;;;;5503499;26;20094;-41
2024/04/19 11:49:05;;;;;;;18.70;9.98;;;;;;;;;;5503667;26;19982;-40
2024/04/19 11:51:32;;;;;;;15.82;9.70;;;;;;;;;;5503753;26;19994;-42
2024/04/19 11:53:58;;;;;;;16.10;10.10;;;;;;;;;;5503371;26;19997;-47
2024/04/19 11:56:25;;;;;;;15.40;9.95;;;;;;;;;;5503916;26;20001;-41
2024/04/19 11:58:52;;;;;;;16.83;9.55;;;;;;;;;;5535540;26;20000;-40
2024/04/19 12:01:19;;;;;;;17.45;9.10;;;;;;;;;;5532735;26;19997;-44
2024/04/19 12:03:46;;;;;;;17.33;10.45;;;;;;;;;;5503563;26;20047;-46
2024/04/19 12:06:13;;;;;;;18.65;9.48;;;;;;;;;;5503524;26;19990;-47
2024/04/19 12:08:39;;;;;;;14.18;10.63;;;;;;;;;;5506681;25;20006;-47
2024/04/19 12:11:06;;;;;;;19.23;10.00;;;;;;;;;;5540732;26;19993;-47
2024/04/19 12:13:33;;;;;;;20.48;10.30;;;;;;;;;;5528957;26;19990;-49
2024/04/19 12:16:00;;;;;;;24.63;10.48;;;;;;;;;;5503463;26;19997;-40
2024/04/19 12:18:27;;;;;;;13.68;9.57;;;;;;;;;;5502904;26;20021;-40
2024/04/19 12:20:54;;;;;;;14.27;9.85;;;;;;;;;;5503626;26;19986;-38
2024/04/19 12:23:20;;;;;;;14.18;10.45;;;;;;;;;;5527101;25;20017;-47
2024/04/19 12:25:47;;;;;;;15.35;10.60;;;;;;;;;;5537936;25;19996;-41
2024/04/19 12:28:14;;;;;;;13.13;10.68;;;;;;;;;;5540001;26;20014;-42
2024/04/19 12:30:41;;;;;;;16.10;11.30;;;;;;;;;;5539963;26;19981;-44
2024/04/19 12:33:08;;;;;;;24.27;12.38;;;;;;;;;;5527127;26;19994;-41
2024/04/19 12:35:35;;;;;;;21.90;13.02;;;;;;;;;;5503023;26;19997;-43
2024/04/19 12:38:02;;;;;;;19.15;12.68;;;;;;;;;;5503997;25;20002;-41
2024/04/19 12:40:31;;;;;;;14.70;12.90;;;;;;;;;;5538241;25;20129;-42
2024/04/19 12:42:59;;;;;;;17.77;13.43;;;;;;;;;;5543549;25;19998;-40
2024/04/19 12:45:25;;;;;;;15.85;14.15;;;;;;;;;;5526858;25;20033;-43
2024/04/19 12:47:52;;;;;;;16.98;14.30;;;;;;;;;;5509148;25;19992;-45
2024/04/19 12:50:18;;;;;;;15.32;13.70;;;;;;;;;;5502651;26;20030;-40
2024/04/19 12:52:45;;;;;;;15.18;13.68;;;;;;;;;;5502496;26;20201;-42
2024/04/19 12:55:11;;;;;;;16.25;14.52;;;;;;;;;;5502980;26;20001;-39
2024/04/19 12:57:38;;;;;;;17.77;14.10;;;;;;;;;;5502527;26;19986;-41
2024/04/19 13:00:05;;;;;;;17.20;14.50;;;;;;;;;;5502786;25;20034;-44
2024/04/19 13:02:32;;;;;;;17.15;15.45;;;;;;;;;;5519552;25;20000;-44
2024/04/19 13:04:58;;;;;;;17.20;15.18;;;;;;;;;;5502527;26;20046;-47
2024/04/19 13:07:25;;;;;;;19.02;15.70;;;;;;;;;;5502342;26;20051;-48
2024/04/19 13:09:52;;;;;;;16.90;15.15;;;;;;;;;;5502450;26;19990;-47
2024/04/19 13:12:19;;;;;;;18.20;16.20;;;;;;;;;;5502347;26;19998;-41
2024/04/19 13:14:46;;;;;;;18.25;16.45;;;;;;;;;;5502367;26;19990;-44
2024/04/19 13:17:12;;;;;;;18.77;16.83;;;;;;;;;;5502103;26;19994;-39
2024/04/19 13:19:39;;;;;;;17.83;15.93;;;;;;;;;;5502112;26;19986;-46
2024/04/19 13:22:06;;;;;;;18.50;16.70;;;;;;;;;;5502162;26;20014;-42
2024/04/19 13:24:32;;;;;;;18.50;16.67;;;;;;;;;;5501828;26;20006;-54
2024/04/19 13:26:59;;;;;;;18.33;16.42;;;;;;;;;;5502161;26;19990;-44
2024/04/19 13:29:25;;;;;;;17.38;15.85;;;;;;;;;;5502089;26;20057;-42
2024/04/19 13:31:53;;;;;;;18.05;16.23;;;;;;;;;;5505639;26;20046;-47
2024/04/19 13:34:20;;;;;;;19.23;17.23;;;;;;;;;;5505889;26;19990;-41
2024/04/19 13:36:47;;;;;;;18.55;16.60;;;;;;;;;;5505575;26;19986;-43
2024/04/19 13:39:13;;;;;;;18.35;16.55;;;;;;;;;;5505634;26;20011;-42
2024/04/19 13:41:40;;;;;;;19.75;17.77;;;;;;;;;;5505949;26;19986;-43
2024/04/19 13:44:09;;;;;;;19.02;17.13;;;;;;;;;;5505591;26;19982;-43
2024/04/19 13:46:35;;;;;;;19.30;17.45;;;;;;;;;;5521006;25;20001;-40
2024/04/19 13:49:02;;;;;;;19.83;17.83;;;;;;;;;;5505769;26;19994;-41
2024/04/19 13:51:29;;;;;;;23.45;18.38;;;;;;;;;;5505942;26;20116;-42
2024/04/19 13:53:56;;;;;;;19.38;17.48;;;;;;;;;;5505489;26;19982;-50
2024/04/19 13:56:23;;;;;;;20.00;18.13;;;;;;;;;;5505397;26;19990;-42
2024/04/19 13:58:51;;;;;;;20.15;18.02;;;;;;;;;;5505401;26;19990;-42
2024/04/19 14:01:18;;;;;;;23.17;17.90;;;;;;;;;;5505518;26;20038;-41
2024/04/19 14:03:45;;;;;;;20.85;18.75;;;;;;;;;;5505259;26;19986;-41
2024/04/19 14:06:11;;;;;;;20.98;18.85;;;;;;;;;;5505359;26;20206;-42
2024/04/19 14:08:38;;;;;;;20.63;18.48;;;;;;;;;;5505003;26;20007;-52
2024/04/19 14:11:05;;;;;;;21.10;19.10;;;;;;;;;;5505170;26;19986;-48
2024/04/19 14:13:32;;;;;;;21.58;19.48;;;;;;;;;;5505057;26;19989;-40
2024/04/19 14:15:59;;;;;;;23.15;20.75;;;;;;;;;;5504919;26;20031;-50
2024/04/19 14:18:26;;;;;;;21.70;19.70;;;;;;;;;;5505038;26;19986;-46
2024/04/19 14:20:53;;;;;;;22.13;19.88;;;;;;;;;;5507538;25;19990;-46
2024/04/19 14:23:20;;;;;;;23.30;20.80;;;;;;;;;;5523390;25;19997;-40
2024/04/19 14:25:46;;;;;;;23.38;20.85;;;;;;;;;;5541908;26;19985;-43